Time;durP1;ratioP1;P1;durP2;ratioP2;P2;SDS_P1;SDS_P2;PMS_P1;PMS_P2;Temp;Humidity;BMP_temperature;BMP_pressure;BME280_temperature;BME280_humidity;BME280_pressure;Samples;Min_cycle;Max_cycle;Signal;HPM_P1;HPM_P2
2022/01/08 00:01:23;;;;;;;0.40;0.40;;;2.80;99.90;;;;;;5065895;28;20939;-71
2022/01/08 00:04:09;;;;;;;0.40;0.40;;;2.80;99.90;;;;;;5076058;28;20472;-70
2022/01/08 00:06:56;;;;;;;0.40;0.40;;;2.80;99.90;;;;;;5076204;28;20509;-72
2022/01/08 00:09:43;;;;;;;0.40;0.40;;;2.90;99.90;;;;;;5075121;28;20832;-70
2022/01/08 00:12:32;;;;;;;0.40;0.40;;;3.00;99.90;;;;;;5079655;28;20411;-73
2022/01/08 00:15:21;;;;;;;0.40;0.40;;;3.00;99.90;;;;;;5077259;28;20414;-77
2022/01/08 00:18:08;;;;;;;0.40;0.40;;;2.80;99.90;;;;;;5075990;28;20494;-70
2022/01/08 00:20:55;;;;;;;0.40;0.40;;;2.80;99.90;;;;;;5074705;28;20927;-72
2022/01/08 00:23:42;;;;;;;0.40;0.40;;;2.80;99.90;;;;;;5074737;28;20546;-71
2022/01/08 00:26:29;;;;;;;0.40;0.40;;;2.80;99.90;;;;;;5074813;28;20455;-70
2022/01/08 00:29:17;;;;;;;0.50;0.50;;;2.70;99.90;;;;;;5074627;28;20471;-71
2022/01/08 00:32:05;;;;;;;0.40;0.40;;;2.60;99.90;;;;;;5074889;28;20545;-69
2022/01/08 00:34:52;;;;;;;0.50;0.50;;;2.70;99.90;;;;;;5074717;28;20419;-71
2022/01/08 00:37:39;;;;;;;0.50;0.50;;;2.60;99.90;;;;;;5075463;28;20484;-71
2022/01/08 00:40:26;;;;;;;0.50;0.50;;;2.60;99.90;;;;;;5074469;28;20430;-70
2022/01/08 00:43:13;;;;;;;0.50;0.50;;;2.70;99.90;;;;;;5075162;28;20484;-70
2022/01/08 00:46:01;;;;;;;0.53;0.53;;;2.60;99.90;;;;;;5074997;28;20463;-70
2022/01/08 00:48:48;;;;;;;0.50;0.50;;;2.60;99.90;;;;;;5074551;28;20440;-71
2022/01/08 00:51:35;;;;;;;0.40;0.40;;;2.60;99.90;;;;;;5075072;28;20423;-71
2022/01/08 00:54:22;;;;;;;0.40;0.40;;;2.60;99.90;;;;;;5074831;28;20427;-72
2022/01/08 00:57:09;;;;;;;0.40;0.40;;;2.60;99.90;;;;;;5074508;28;20988;-71
2022/01/08 00:59:57;;;;;;;0.40;0.40;;;2.60;99.90;;;;;;5073928;28;20443;-70
2022/01/08 01:02:45;;;;;;;0.40;0.40;;;2.60;99.90;;;;;;5054033;28;20443;-70
2022/01/08 01:05:32;;;;;;;0.50;0.50;;;2.60;99.90;;;;;;5053634;28;20467;-73
2022/01/08 01:08:19;;;;;;;0.40;0.40;;;2.60;99.90;;;;;;5053386;28;20460;-71
2022/01/08 01:11:06;;;;;;;0.43;0.43;;;2.60;99.90;;;;;;5053579;28;20428;-70
2022/01/08 01:13:52;;;;;;;0.50;0.50;;;2.50;99.90;;;;;;5053157;28;20424;-73
2022/01/08 01:16:39;;;;;;;0.40;0.40;;;2.50;99.90;;;;;;5053386;28;20577;-70
2022/01/08 01:19:29;;;;;;;0.40;0.40;;;2.40;99.90;;;;;;5053016;28;20873;-70
2022/01/08 01:22:19;;;;;;;0.50;0.50;;;2.30;99.90;;;;;;5053413;28;20489;-70
2022/01/08 01:25:08;;;;;;;0.40;0.40;;;2.20;99.90;;;;;;5053012;28;20464;-70
2022/01/08 01:28:10;;;;;;;0.40;0.40;;;2.30;99.90;;;;;;5054000;28;20420;-71
2022/01/08 01:43:35;;;;;;;0.50;0.50;;;2.70;99.90;;;;;;5053575;28;20420;-71
2022/01/08 01:49:27;;;;;;;0.40;0.40;;;2.70;99.90;;;;;;5053475;28;20494;-70
2022/01/08 01:52:17;;;;;;;0.40;0.40;;;2.70;99.90;;;;;;5053186;28;20431;-71
2022/01/08 01:55:05;;;;;;;0.40;0.40;;;2.60;99.90;;;;;;5053896;28;20424;-72
2022/01/08 01:57:54;;;;;;;0.50;0.50;;;2.50;99.90;;;;;;5053515;28;20510;-71
2022/01/08 02:00:43;;;;;;;0.40;0.40;;;2.30;99.90;;;;;;5058165;28;20431;-70
2022/01/08 02:03:30;;;;;;;0.40;0.40;;;2.30;99.90;;;;;;5066154;28;20941;-69
2022/01/08 02:06:16;;;;;;;0.40;0.40;;;2.30;99.90;;;;;;5053467;28;20509;-71
2022/01/08 02:09:05;;;;;;;0.40;0.40;;;2.30;99.90;;;;;;5061441;28;20474;-70
2022/01/08 02:11:55;;;;;;;0.40;0.40;;;2.10;99.90;;;;;;5066056;28;20424;-71
2022/01/08 02:14:42;;;;;;;0.40;0.40;;;1.90;99.90;;;;;;5073002;28;20800;-70
2022/01/08 02:17:29;;;;;;;0.50;0.50;;;1.90;99.90;;;;;;5073149;28;20420;-72
2022/01/08 02:20:17;;;;;;;0.50;0.50;;;1.90;99.90;;;;;;5072724;28;20497;-72
2022/01/08 02:23:04;;;;;;;2.70;0.70;;;2.00;99.90;;;;;;5073489;28;20936;-71
2022/01/08 02:25:51;;;;;;;0.50;0.50;;;2.00;99.90;;;;;;5072983;28;20466;-71
2022/01/08 02:28:39;;;;;;;0.40;0.40;;;2.00;99.90;;;;;;5073753;28;20489;-72
2022/01/08 02:31:27;;;;;;;0.50;0.50;;;2.20;99.90;;;;;;5076390;28;20837;-70
2022/01/08 02:34:14;;;;;;;0.40;0.40;;;2.30;99.90;;;;;;5077852;28;20478;-70
2022/01/08 02:37:03;;;;;;;0.40;0.40;;;2.50;99.90;;;;;;5078097;28;20423;-70
2022/01/08 02:39:50;;;;;;;0.40;0.40;;;2.60;99.90;;;;;;5077442;28;20450;-70
2022/01/08 02:42:40;;;;;;;0.40;0.40;;;2.60;99.90;;;;;;5078167;28;20803;-70
2022/01/08 02:45:28;;;;;;;0.50;0.50;;;2.70;99.90;;;;;;5077147;28;20467;-71
2022/01/08 02:48:15;;;;;;;0.40;0.40;;;2.80;99.90;;;;;;5076781;28;20454;-70
2022/01/08 02:51:02;;;;;;;0.40;0.40;;;2.80;99.90;;;;;;5077103;28;20447;-70
2022/01/08 02:53:50;;;;;;;0.50;0.50;;;2.80;99.90;;;;;;5077005;28;20459;-71
2022/01/08 02:56:38;;;;;;;0.40;0.40;;;2.80;99.90;;;;;;5077344;28;20978;-70
2022/01/08 02:59:26;;;;;;;0.40;0.40;;;2.80;99.90;;;;;;5076974;28;20455;-70
2022/01/08 03:02:13;;;;;;;0.40;0.40;;;2.80;99.90;;;;;;5059497;28;20448;-71
2022/01/08 03:04:59;;;;;;;0.40;0.40;;;2.90;99.90;;;;;;5057806;28;21051;-70
2022/01/08 03:07:49;;;;;;;0.40;0.40;;;2.90;99.90;;;;;;5057714;28;20471;-73
2022/01/08 03:10:37;;;;;;;1.73;1.63;;;2.90;99.90;;;;;;5057603;28;20467;-71
2022/01/08 03:13:24;;;;;;;1.03;1.03;;;2.80;99.90;;;;;;5056996;28;20452;-72
2022/01/08 03:16:11;;;;;;;0.40;0.40;;;2.70;99.90;;;;;;5057377;28;20416;-71
2022/01/08 03:18:58;;;;;;;0.40;0.40;;;2.50;99.90;;;;;;5056696;28;20448;-72
2022/01/08 03:21:51;;;;;;;0.40;0.40;;;2.20;99.90;;;;;;5056773;28;20994;-71
2022/01/08 03:24:40;;;;;;;0.40;0.40;;;2.10;99.90;;;;;;5065037;28;20420;-72
2022/01/08 03:27:28;;;;;;;0.40;0.40;;;2.10;99.90;;;;;;5068502;28;20468;-71
2022/01/08 03:30:15;;;;;;;0.50;0.50;;;1.90;99.90;;;;;;5067989;28;20451;-71
2022/01/08 03:33:02;;;;;;;0.40;0.40;;;1.80;99.90;;;;;;5067659;28;20432;-72
2022/01/08 03:35:49;;;;;;;0.40;0.40;;;1.90;99.90;;;;;;5062206;28;20487;-72
2022/01/08 03:38:36;;;;;;;0.40;0.40;;;2.00;99.90;;;;;;5055529;28;20533;-72
2022/01/08 03:41:23;;;;;;;0.40;0.40;;;1.90;99.90;;;;;;5055846;28;20788;-72
2022/01/08 03:44:11;;;;;;;0.40;0.40;;;1.90;99.90;;;;;;5054463;28;20428;-71
2022/01/08 03:47:21;;;;;;;0.40;0.40;;;2.00;99.90;;;;;;5055220;28;20465;-71
2022/01/08 03:50:05;;;;;;;0.50;0.50;;;1.90;99.90;;;;;;5055022;28;20546;-71
2022/01/08 03:52:52;;;;;;;0.50;0.50;;;1.80;99.90;;;;;;5054835;28;20940;-73
2022/01/08 03:55:39;;;;;;;0.40;0.40;;;1.80;99.90;;;;;;5055356;28;20428;-72
2022/01/08 03:58:27;;;;;;;0.50;0.50;;;1.90;99.90;;;;;;5055217;28;20952;-71
2022/01/08 04:01:16;;;;;;;0.40;0.40;;;2.00;99.90;;;;;;5064584;28;20431;-73
2022/01/08 04:04:03;;;;;;;1.00;1.00;;;2.10;99.90;;;;;;5073914;28;20452;-71
2022/01/08 04:06:50;;;;;;;0.40;0.40;;;2.30;99.90;;;;;;5073747;28;20545;-71
2022/01/08 04:09:37;;;;;;;0.40;0.40;;;2.40;99.90;;;;;;5073766;28;20459;-71
2022/01/08 04:12:33;;;;;;;0.40;0.40;;;2.50;99.90;;;;;;5074427;28;21049;-71
2022/01/08 04:15:34;;;;;;;0.40;0.40;;;2.50;99.90;;;;;;5074932;28;20423;-71
2022/01/08 04:18:22;;;;;;;0.50;0.50;;;2.70;99.90;;;;;;5074026;28;20532;-71
2022/01/08 04:21:37;;;;;;;0.40;0.40;;;2.70;99.90;;;;;;5074288;28;20423;-71
2022/01/08 04:24:19;;;;;;;0.40;0.40;;;2.70;99.90;;;;;;5074217;28;20808;-71
2022/01/08 04:27:06;;;;;;;0.50;0.50;;;2.70;99.90;;;;;;5074379;28;20493;-71
2022/01/08 04:29:53;;;;;;;0.40;0.40;;;2.80;99.90;;;;;;5074038;28;20962;-70
2022/01/08 04:32:40;;;;;;;0.40;0.40;;;2.70;99.90;;;;;;5074154;28;20423;-72
2022/01/08 04:35:28;;;;;;;0.40;0.40;;;2.90;99.90;;;;;;5074181;28;20419;-71
2022/01/08 04:38:15;;;;;;;0.40;0.40;;;2.70;99.90;;;;;;5073955;28;20513;-70
2022/01/08 04:41:02;;;;;;;0.40;0.40;;;2.70;99.90;;;;;;5073803;28;20896;-71
2022/01/08 04:43:49;;;;;;;0.50;0.50;;;2.80;99.90;;;;;;5073996;28;20854;-71
2022/01/08 04:46:38;;;;;;;0.40;0.40;;;2.80;99.90;;;;;;5074159;28;20462;-71
2022/01/08 04:49:25;;;;;;;1.50;0.97;;;2.80;99.90;;;;;;5073721;28;20443;-71
2022/01/08 04:52:14;;;;;;;0.40;0.40;;;2.70;99.90;;;;;;5074002;28;20951;-71
2022/01/08 04:55:00;;;;;;;0.50;0.50;;;2.70;99.90;;;;;;5072064;28;20473;-71
2022/01/08 04:57:48;;;;;;;0.60;0.60;;;2.70;99.90;;;;;;5073544;28;20423;-72
2022/01/08 05:00:36;;;;;;;0.40;0.40;;;2.70;99.90;;;;;;5068955;28;20424;-71
2022/01/08 05:03:23;;;;;;;0.40;0.40;;;2.70;99.90;;;;;;5067194;28;20501;-71
2022/01/08 05:06:11;;;;;;;0.40;0.40;;;2.60;99.90;;;;;;5066446;28;20490;-70
2022/01/08 05:08:59;;;;;;;0.40;0.40;;;2.60;99.90;;;;;;5066755;28;20456;-71
2022/01/08 05:11:46;;;;;;;0.40;0.40;;;2.60;99.90;;;;;;5067460;28;20448;-71
2022/01/08 05:14:33;;;;;;;0.40;0.40;;;2.50;99.90;;;;;;5054968;28;20424;-71
2022/01/08 05:17:25;;;;;;;0.40;0.40;;;2.40;99.90;;;;;;5052922;28;20482;-70
2022/01/08 05:20:14;;;;;;;0.40;0.40;;;2.40;99.90;;;;;;5052778;28;20456;-71
2022/01/08 05:23:00;;;;;;;0.50;0.50;;;2.40;99.90;;;;;;5052883;28;20502;-70
2022/01/08 05:25:49;;;;;;;0.40;0.40;;;2.40;99.90;;;;;;5052713;28;20937;-71
2022/01/08 05:28:36;;;;;;;0.93;0.70;;;2.30;99.90;;;;;;5051805;28;20444;-71
2022/01/08 05:31:23;;;;;;;1.57;0.60;;;2.20;99.90;;;;;;5052395;28;20475;-71
2022/01/08 05:34:11;;;;;;;1.90;1.73;;;2.20;99.90;;;;;;5052450;28;20424;-70
2022/01/08 05:36:58;;;;;;;0.50;0.50;;;2.20;99.90;;;;;;5052529;28;20427;-71
2022/01/08 05:39:45;;;;;;;0.40;0.40;;;2.30;99.90;;;;;;5052465;28;21002;-72
2022/01/08 05:42:33;;;;;;;0.40;0.40;;;2.20;99.90;;;;;;5052544;28;20436;-71
2022/01/08 05:45:20;;;;;;;0.50;0.50;;;2.20;99.90;;;;;;5053227;28;20453;-72
2022/01/08 05:48:08;;;;;;;0.47;0.47;;;2.20;99.90;;;;;;5053316;28;20991;-72
2022/01/08 05:50:55;;;;;;;0.40;0.40;;;2.30;99.90;;;;;;5053020;28;20420;-72
2022/01/08 05:53:42;;;;;;;0.40;0.40;;;2.30;99.90;;;;;;5053286;28;20964;-72
2022/01/08 05:56:29;;;;;;;0.40;0.40;;;2.20;99.90;;;;;;5053512;28;20452;-71
2022/01/08 05:59:17;;;;;;;0.40;0.40;;;2.10;99.90;;;;;;5052317;28;20449;-71
2022/01/08 06:02:05;;;;;;;0.50;0.50;;;2.00;99.90;;;;;;5069932;28;20419;-70
2022/01/08 06:04:52;;;;;;;0.40;0.40;;;1.90;99.90;;;;;;5074474;28;20506;-71
2022/01/08 06:07:39;;;;;;;0.40;0.40;;;1.80;99.90;;;;;;5077111;28;20486;-71
2022/01/08 06:10:26;;;;;;;0.40;0.40;;;1.80;99.90;;;;;;5077886;28;20419;-71
2022/01/08 06:13:13;;;;;;;0.50;0.50;;;1.90;99.90;;;;;;5078358;28;20454;-71
2022/01/08 06:16:01;;;;;;;0.50;0.50;;;1.90;99.90;;;;;;5078512;28;20439;-71
2022/01/08 06:18:48;;;;;;;0.50;0.50;;;2.00;99.90;;;;;;5078372;28;20446;-71
2022/01/08 06:21:36;;;;;;;0.40;0.40;;;2.10;99.90;;;;;;5077907;28;20494;-71
2022/01/08 06:24:22;;;;;;;0.40;0.40;;;2.20;99.90;;;;;;5077637;28;20809;-71
2022/01/08 06:27:10;;;;;;;0.40;0.40;;;2.20;99.90;;;;;;5087096;28;20455;-70
2022/01/08 06:29:57;;;;;;;0.47;0.47;;;2.30;99.90;;;;;;5092958;28;20484;-71
2022/01/08 06:32:45;;;;;;;0.40;0.40;;;2.50;99.90;;;;;;5089575;28;20451;-71
2022/01/08 06:35:32;;;;;;;2.00;1.53;;;2.50;99.90;;;;;;5089737;28;20453;-71
2022/01/08 06:38:19;;;;;;;0.40;0.40;;;2.50;99.90;;;;;;5089111;28;20435;-72
2022/01/08 06:41:06;;;;;;;0.50;0.50;;;2.50;99.90;;;;;;5080634;28;20943;-71
2022/01/08 06:43:53;;;;;;;0.40;0.40;;;2.50;99.90;;;;;;5080164;28;20431;-71
2022/01/08 06:46:41;;;;;;;0.50;0.50;;;2.40;99.90;;;;;;5083102;28;20823;-71
2022/01/08 06:49:29;;;;;;;0.50;0.50;;;2.40;99.90;;;;;;5088833;28;20444;-70
2022/01/08 06:52:16;;;;;;;0.40;0.40;;;2.20;99.90;;;;;;5090011;28;20852;-70
2022/01/08 06:55:04;;;;;;;0.40;0.40;;;2.10;99.90;;;;;;5090291;28;20423;-71
2022/01/08 06:57:50;;;;;;;0.40;0.40;;;2.00;99.90;;;;;;5090824;28;20445;-71
2022/01/08 07:00:37;;;;;;;0.40;0.40;;;2.00;99.90;;;;;;5093567;28;20450;-70
2022/01/08 07:03:24;;;;;;;0.50;0.50;;;1.90;99.90;;;;;;5093155;28;20477;-72
2022/01/08 07:06:12;;;;;;;0.77;0.77;;;1.90;99.90;;;;;;5094191;28;20434;-72
2022/01/08 07:08:59;;;;;;;0.40;0.40;;;2.10;99.90;;;;;;5094069;28;20458;-71
2022/01/08 07:11:46;;;;;;;0.40;0.40;;;1.80;99.90;;;;;;5093896;28;20419;-73
2022/01/08 07:14:33;;;;;;;0.40;0.40;;;1.90;99.90;;;;;;5093987;28;20431;-72
2022/01/08 07:17:20;;;;;;;0.40;0.40;;;1.90;99.90;;;;;;5092774;28;20471;-72
2022/01/08 07:20:08;;;;;;;0.40;0.40;;;1.90;99.90;;;;;;5089044;28;20943;-72
2022/01/08 07:22:56;;;;;;;0.40;0.40;;;2.00;99.90;;;;;;5076386;28;20486;-71
2022/01/08 07:25:43;;;;;;;0.40;0.40;;;2.00;99.90;;;;;;5075922;28;20948;-71
2022/01/08 07:28:30;;;;;;;0.40;0.40;;;2.00;99.90;;;;;;5075211;28;20463;-72
2022/01/08 07:31:16;;;;;;;0.40;0.40;;;2.00;99.90;;;;;;5076291;28;20420;-72
2022/01/08 07:34:03;;;;;;;0.40;0.40;;;2.00;99.90;;;;;;5076986;28;20480;-71
2022/01/08 07:36:50;;;;;;;0.40;0.40;;;2.10;99.90;;;;;;5075923;28;20435;-72
2022/01/08 07:39:38;;;;;;;0.40;0.40;;;2.10;99.90;;;;;;5075558;28;20970;-71
2022/01/08 07:42:25;;;;;;;0.40;0.40;;;2.00;99.90;;;;;;5075359;28;20423;-71
2022/01/08 07:45:13;;;;;;;0.40;0.40;;;2.00;99.90;;;;;;5076729;28;20438;-72
2022/01/08 07:48:00;;;;;;;0.40;0.40;;;2.00;99.90;;;;;;5076838;28;20499;-70
2022/01/08 07:50:47;;;;;;;0.40;0.40;;;2.10;99.90;;;;;;5075186;28;20445;-71
2022/01/08 07:53:33;;;;;;;0.40;0.40;;;2.00;99.90;;;;;;5076325;28;20433;-70
2022/01/08 07:56:22;;;;;;;0.40;0.40;;;2.10;99.90;;;;;;5075702;28;20451;-71
2022/01/08 07:59:09;;;;;;;0.40;0.40;;;2.10;99.90;;;;;;5074538;28;20857;-71
2022/01/08 08:01:55;;;;;;;0.40;0.40;;;2.20;99.90;;;;;;5059310;28;20985;-71
2022/01/08 08:04:42;;;;;;;0.40;0.40;;;2.20;99.90;;;;;;5054920;28;20936;-71
2022/01/08 08:07:36;;;;;;;0.40;0.40;;;2.30;99.90;;;;;;5054640;28;20488;-71
2022/01/08 08:10:25;;;;;;;0.40;0.40;;;2.50;99.90;;;;;;5054417;28;20882;-71
2022/01/08 08:13:13;;;;;;;0.40;0.40;;;2.40;99.90;;;;;;5054491;28;20423;-72
2022/01/08 08:16:00;;;;;;;0.40;0.40;;;2.50;99.90;;;;;;5054375;28;20925;-71
2022/01/08 08:18:47;;;;;;;0.50;0.50;;;2.60;99.90;;;;;;5053040;28;20482;-71
2022/01/08 08:21:34;;;;;;;0.50;0.50;;;2.50;99.90;;;;;;5054251;28;20443;-71
2022/01/08 08:24:21;;;;;;;0.50;0.50;;;2.50;99.90;;;;;;5053728;28;20424;-70
2022/01/08 08:27:08;;;;;;;0.40;0.40;;;2.50;99.90;;;;;;5053445;28;20460;-72
2022/01/08 08:29:56;;;;;;;0.40;0.40;;;2.60;99.90;;;;;;5053078;28;20464;-72
2022/01/08 08:32:43;;;;;;;0.40;0.40;;;2.70;99.90;;;;;;5054580;28;20421;-71
2022/01/08 08:35:30;;;;;;;0.47;0.47;;;2.80;99.90;;;;;;5054587;28;20435;-74
2022/01/08 08:38:17;;;;;;;0.40;0.40;;;2.90;99.90;;;;;;5053476;28;20447;-71
2022/01/08 08:41:04;;;;;;;0.40;0.40;;;3.10;99.90;;;;;;5053830;28;20448;-72
2022/01/08 08:43:51;;;;;;;0.40;0.40;;;2.90;99.90;;;;;;5053864;28;20807;-71
2022/01/08 08:46:39;;;;;;;0.40;0.40;;;3.00;99.90;;;;;;5054054;28;20425;-71
2022/01/08 08:49:26;;;;;;;0.50;0.50;;;2.90;99.90;;;;;;5054078;28;20787;-71
2022/01/08 08:52:13;;;;;;;0.50;0.50;;;2.70;99.90;;;;;;5054022;28;20855;-72
2022/01/08 08:55:00;;;;;;;0.40;0.40;;;2.80;99.90;;;;;;5054337;28;20486;-72
2022/01/08 08:57:47;;;;;;;0.40;0.40;;;2.60;99.90;;;;;;5054080;28;20427;-73
2022/01/08 09:00:34;;;;;;;0.50;0.50;;;2.50;99.90;;;;;;5057721;28;20423;-72
2022/01/08 09:03:22;;;;;;;0.40;0.40;;;2.40;99.90;;;;;;5073862;28;20580;-71
2022/01/08 09:06:09;;;;;;;0.40;0.40;;;2.30;99.90;;;;;;5073828;28;20473;-73
2022/01/08 09:08:57;;;;;;;0.40;0.40;;;2.20;99.90;;;;;;5073934;28;20487;-71
2022/01/08 09:11:44;;;;;;;0.40;0.40;;;2.20;99.90;;;;;;5074689;28;20508;-72
2022/01/08 09:14:31;;;;;;;0.40;0.40;;;2.10;99.90;;;;;;5074379;28;20984;-71
2022/01/08 09:17:18;;;;;;;0.40;0.40;;;2.10;99.90;;;;;;5074172;28;20431;-72
2022/01/08 09:20:08;;;;;;;0.40;0.40;;;2.10;99.90;;;;;;5073358;28;20443;-71
2022/01/08 09:22:56;;;;;;;0.40;0.40;;;2.10;99.90;;;;;;5073034;28;20867;-72
2022/01/08 09:25:43;;;;;;;0.50;0.50;;;2.00;99.90;;;;;;5072712;28;20799;-72
2022/01/08 09:28:30;;;;;;;0.63;0.60;;;2.00;99.90;;;;;;5074565;28;20846;-71
2022/01/08 09:31:18;;;;;;;0.40;0.40;;;2.10;99.90;;;;;;5073535;28;20415;-72
2022/01/08 09:34:05;;;;;;;0.40;0.40;;;2.10;99.90;;;;;;5077985;28;20498;-71
2022/01/08 09:36:53;;;;;;;0.77;0.70;;;2.10;99.90;;;;;;5085414;28;20424;-71
2022/01/08 09:39:40;;;;;;;0.63;0.63;;;2.00;99.90;;;;;;5079953;28;20447;-71
2022/01/08 09:42:27;;;;;;;0.40;0.40;;;1.90;99.90;;;;;;5085320;28;20453;-71
2022/01/08 09:45:14;;;;;;;0.40;0.40;;;1.90;99.90;;;;;;5081957;28;20454;-71
2022/01/08 09:48:01;;;;;;;0.50;0.50;;;1.90;99.90;;;;;;5077911;28;20490;-71
2022/01/08 09:50:48;;;;;;;0.40;0.40;;;1.90;99.90;;;;;;5075332;28;20924;-71
2022/01/08 09:53:37;;;;;;;0.50;0.50;;;1.90;99.90;;;;;;5074520;28;20932;-71
2022/01/08 09:56:25;;;;;;;1.67;1.57;;;1.90;99.90;;;;;;5072348;28;20423;-71
2022/01/08 09:59:12;;;;;;;0.60;0.60;;;1.80;99.90;;;;;;5073558;28;20435;-72
2022/01/08 10:02:01;;;;;;;0.40;0.40;;;1.80;99.90;;;;;;5057748;28;20937;-71
2022/01/08 10:04:48;;;;;;;0.40;0.40;;;1.80;99.90;;;;;;5059679;28;20438;-71
2022/01/08 10:07:35;;;;;;;0.50;0.50;;;1.90;99.90;;;;;;5090671;28;20448;-70
2022/01/08 10:10:27;;;;;;;0.50;0.50;;;1.80;99.90;;;;;;5090296;28;20501;-73
2022/01/08 10:13:23;;;;;;;0.40;0.40;;;1.80;99.90;;;;;;5086150;28;20443;-71
2022/01/08 10:19:20;;;;;;;0.50;0.50;;;1.90;99.90;;;;;;5089005;28;20442;-70
2022/01/08 10:22:15;;;;;;;0.40;0.40;;;1.90;99.90;;;;;;5089362;28;20928;-71
2022/01/08 10:25:10;;;;;;;0.63;0.60;;;1.90;99.90;;;;;;5088216;28;20450;-71
2022/01/08 10:27:58;;;;;;;0.40;0.40;;;1.90;99.90;;;;;;5088799;28;20483;-71
2022/01/08 10:30:45;;;;;;;0.40;0.40;;;2.00;99.90;;;;;;5087270;28;20427;-71
2022/01/08 10:33:32;;;;;;;0.50;0.50;;;2.10;99.90;;;;;;5084403;28;20428;-71
2022/01/08 10:36:25;;;;;;;0.50;0.50;;;2.10;99.90;;;;;;5073995;28;20801;-71
2022/01/08 10:39:13;;;;;;;0.80;0.50;;;2.20;99.90;;;;;;5073872;28;20523;-73
2022/01/08 10:42:07;;;;;;;0.50;0.50;;;2.40;99.90;;;;;;5073957;28;20945;-71
2022/01/08 10:44:55;;;;;;;0.87;0.87;;;2.50;99.90;;;;;;5073680;28;20835;-70
2022/01/08 10:47:43;;;;;;;0.40;0.40;;;2.60;99.90;;;;;;5080010;28;20966;-71
2022/01/08 10:50:30;;;;;;;0.40;0.40;;;2.90;99.90;;;;;;5082914;28;20870;-71
2022/01/08 10:53:17;;;;;;;0.50;0.50;;;3.00;99.90;;;;;;5086291;28;20432;-72
2022/01/08 10:56:21;;;;;;;2.20;2.10;;;3.20;99.90;;;;;;5086499;28;20446;-72
2022/01/08 10:59:20;;;;;;;0.77;0.77;;;3.60;99.90;;;;;;5085898;28;20458;-72
2022/01/08 11:02:09;;;;;;;0.40;0.40;;;3.80;99.90;;;;;;5077467;28;20481;-71
2022/01/08 11:04:56;;;;;;;0.40;0.40;;;4.10;99.90;;;;;;5076849;28;20415;-71
2022/01/08 11:07:44;;;;;;;0.80;0.80;;;4.20;99.90;;;;;;5075955;28;20455;-71
2022/01/08 11:10:31;;;;;;;0.50;0.50;;;4.20;99.90;;;;;;5075924;28;20434;-72
2022/01/08 11:13:19;;;;;;;1.47;1.37;;;4.30;99.90;;;;;;5075668;28;20445;-72
2022/01/08 11:16:06;;;;;;;1.63;1.13;;;4.30;99.90;;;;;;5076135;28;20424;-71
2022/01/08 11:18:54;;;;;;;1.50;1.17;;;4.30;99.90;;;;;;5075436;28;20438;-71
2022/01/08 11:21:41;;;;;;;0.40;0.40;;;4.20;99.90;;;;;;5075803;28;20420;-71
2022/01/08 11:24:30;;;;;;;0.40;0.40;;;4.20;99.90;;;;;;5075658;28;20422;-72
2022/01/08 11:27:21;;;;;;;0.40;0.40;;;4.10;99.90;;;;;;5075207;28;20488;-72
2022/01/08 11:30:14;;;;;;;0.50;0.50;;;4.10;99.90;;;;;;5074628;28;20534;-73
2022/01/08 11:33:07;;;;;;;1.23;1.23;;;4.10;99.90;;;;;;5074994;28;20419;-72
2022/01/08 11:35:56;;;;;;;0.40;0.40;;;4.20;99.90;;;;;;5075386;28;20529;-71
2022/01/08 11:38:44;;;;;;;0.60;0.60;;;4.30;99.90;;;;;;5075045;28;20439;-72
2022/01/08 11:41:32;;;;;;;0.87;0.87;;;4.50;99.90;;;;;;5074942;28;20457;-72
2022/01/08 11:44:20;;;;;;;0.60;0.60;;;4.60;99.90;;;;;;5074426;28;20449;-73
2022/01/08 11:47:07;;;;;;;0.60;0.60;;;4.50;99.90;;;;;;5074891;28;20423;-72
2022/01/08 11:49:55;;;;;;;0.40;0.40;;;4.60;99.90;;;;;;5074966;28;20467;-72
2022/01/08 11:52:43;;;;;;;0.40;0.40;;;4.60;99.90;;;;;;5075418;28;20505;-72
2022/01/08 11:55:36;;;;;;;0.60;0.60;;;4.60;99.90;;;;;;5074564;28;20469;-73
2022/01/08 11:58:26;;;;;;;0.40;0.40;;;4.60;99.90;;;;;;5075032;28;20443;-71
2022/01/08 12:01:14;;;;;;;2.33;2.10;;;4.60;99.90;;;;;;5064977;28;20515;-72
2022/01/08 12:04:01;;;;;;;0.40;0.40;;;4.50;99.90;;;;;;5053542;28;20482;-71
2022/01/08 12:06:48;;;;;;;0.50;0.50;;;4.50;99.90;;;;;;5053609;28;20795;-71
2022/01/08 12:09:40;;;;;;;0.40;0.40;;;4.50;99.90;;;;;;5054440;28;20472;-72
2022/01/08 12:12:43;;;;;;;0.40;0.40;;;4.30;99.90;;;;;;5054034;28;20466;-72
2022/01/08 12:15:48;;;;;;;0.40;0.40;;;4.10;99.90;;;;;;5054413;28;20424;-73
2022/01/08 12:18:53;;;;;;;0.50;0.50;;;3.80;99.90;;;;;;5054867;28;20863;-73
2022/01/08 12:21:42;;;;;;;0.40;0.40;;;3.70;99.90;;;;;;5054105;28;20555;-71
2022/01/08 12:24:38;;;;;;;0.50;0.50;;;3.60;99.90;;;;;;5053878;28;20421;-72
2022/01/08 12:27:44;;;;;;;0.40;0.40;;;3.60;99.90;;;;;;5053902;28;20502;-72
2022/01/08 12:30:37;;;;;;;0.73;0.60;;;3.60;99.90;;;;;;5052550;28;20948;-72
2022/01/08 12:33:24;;;;;;;1.70;0.87;;;3.60;99.90;;;;;;5054462;28;20420;-72
2022/01/08 12:36:33;;;;;;;0.97;0.97;;;3.40;99.90;;;;;;5054007;28;20416;-72
2022/01/08 12:39:24;;;;;;;4.00;1.07;;;3.50;99.90;;;;;;5052764;28;20428;-74
2022/01/08 12:42:44;;;;;;;0.40;0.40;;;3.50;99.90;;;;;;5053838;28;20520;-72
2022/01/08 12:45:33;;;;;;;0.60;0.60;;;3.50;99.90;;;;;;5053594;28;20493;-75
2022/01/08 12:48:21;;;;;;;0.90;0.90;;;3.60;99.90;;;;;;5053456;28;20443;-71
2022/01/08 12:51:08;;;;;;;0.57;0.57;;;3.50;99.90;;;;;;5054462;28;20497;-71
2022/01/08 12:54:05;;;;;;;0.90;0.90;;;3.70;99.90;;;;;;5053929;28;20776;-70
2022/01/08 12:56:54;;;;;;;0.40;0.40;;;3.90;99.90;;;;;;5053830;28;20470;-70
2022/01/08 12:59:42;;;;;;;0.40;0.40;;;4.10;99.90;;;;;;5053538;28;20469;-71
2022/01/08 13:02:29;;;;;;;0.50;0.50;;;4.20;99.90;;;;;;5053722;28;20419;-72
2022/01/08 13:05:16;;;;;;;0.40;0.40;;;4.30;99.90;;;;;;5054813;28;20455;-71
2022/01/08 13:08:03;;;;;;;0.40;0.40;;;4.40;99.90;;;;;;5054455;28;20478;-71
2022/01/08 13:10:56;;;;;;;0.40;0.40;;;4.50;99.90;;;;;;5053649;28;20785;-71
2022/01/08 13:13:45;;;;;;;2.60;1.40;;;4.60;99.90;;;;;;5054969;28;20933;-71
2022/01/08 13:16:37;;;;;;;0.60;0.60;;;4.50;99.90;;;;;;5054412;28;20510;-73
2022/01/08 13:19:25;;;;;;;0.80;0.60;;;4.40;99.90;;;;;;5054145;28;20432;-72
2022/01/08 13:22:12;;;;;;;0.50;0.50;;;4.40;99.90;;;;;;5054749;28;20827;-71
2022/01/08 13:24:59;;;;;;;0.50;0.50;;;4.30;99.90;;;;;;5054290;28;20428;-71
2022/01/08 13:27:50;;;;;;;0.40;0.40;;;4.30;99.90;;;;;;5054206;28;20416;-71
2022/01/08 13:30:37;;;;;;;1.40;1.30;;;4.50;99.90;;;;;;5054302;28;20470;-74
2022/01/08 13:33:27;;;;;;;0.40;0.40;;;4.40;99.90;;;;;;5053973;28;20435;-71
2022/01/08 13:36:14;;;;;;;0.40;0.40;;;4.40;99.90;;;;;;5053963;28;20424;-72
2022/01/08 13:39:01;;;;;;;0.40;0.40;;;4.40;99.90;;;;;;5053522;28;20549;-71
2022/01/08 13:41:48;;;;;;;0.63;0.60;;;4.40;99.90;;;;;;5053603;28;20514;-71
2022/01/08 13:44:35;;;;;;;3.70;1.53;;;4.40;99.90;;;;;;5053473;28;20836;-74
2022/01/08 13:47:31;;;;;;;1.23;1.13;;;4.30;99.90;;;;;;5054008;28;20427;-71
2022/01/08 13:50:27;;;;;;;0.40;0.40;;;4.30;99.90;;;;;;5053742;28;20476;-71
2022/01/08 13:53:16;;;;;;;0.40;0.40;;;4.20;99.90;;;;;;5054477;28;20519;-71
2022/01/08 13:56:03;;;;;;;0.50;0.50;;;4.30;99.90;;;;;;5052799;28;20427;-71
2022/01/08 13:58:50;;;;;;;0.50;0.50;;;4.20;99.90;;;;;;5053734;28;20483;-71
2022/01/08 14:01:42;;;;;;;0.40;0.40;;;4.20;99.90;;;;;;5066520;28;20923;-71
2022/01/08 14:04:29;;;;;;;0.40;0.40;;;4.20;99.90;;;;;;5073648;28;20488;-72
2022/01/08 14:07:18;;;;;;;0.93;0.70;;;4.20;99.90;;;;;;5079707;28;20419;-73
2022/01/08 14:10:06;;;;;;;0.40;0.40;;;4.20;99.90;;;;;;5087276;28;20525;-74
2022/01/08 14:13:07;;;;;;;0.50;0.50;;;4.10;99.90;;;;;;5080095;28;20446;-73
2022/01/08 14:15:59;;;;;;;0.57;0.57;;;4.10;99.90;;;;;;5084440;28;20419;-72
2022/01/08 14:18:46;;;;;;;0.40;0.40;;;4.10;99.90;;;;;;5079999;28;20562;-72
2022/01/08 14:21:33;;;;;;;0.40;0.40;;;4.10;99.90;;;;;;5073610;28;20939;-71
2022/01/08 14:24:23;;;;;;;0.40;0.40;;;4.10;99.90;;;;;;5074545;28;21007;-70
2022/01/08 14:27:12;;;;;;;0.40;0.40;;;4.20;99.90;;;;;;5075020;28;20768;-71
2022/01/08 14:30:13;;;;;;;0.40;0.40;;;4.20;99.90;;;;;;5077500;28;20569;-73
2022/01/08 14:33:04;;;;;;;0.40;0.40;;;4.30;99.90;;;;;;5077666;28;20427;-72
2022/01/08 14:36:00;;;;;;;0.40;0.40;;;4.30;99.90;;;;;;5077355;28;20510;-73
2022/01/08 14:38:49;;;;;;;0.40;0.40;;;4.30;99.90;;;;;;5077242;28;20485;-72
2022/01/08 14:41:39;;;;;;;0.40;0.40;;;4.40;99.90;;;;;;5077264;28;20431;-72
2022/01/08 14:44:26;;;;;;;0.40;0.40;;;4.40;99.90;;;;;;5076932;28;20803;-72
2022/01/08 14:47:13;;;;;;;0.40;0.40;;;4.40;99.90;;;;;;5077254;28;20864;-73
2022/01/08 14:50:00;;;;;;;0.40;0.40;;;4.40;99.90;;;;;;5076679;28;20466;-71
2022/01/08 14:52:49;;;;;;;0.40;0.40;;;4.40;99.90;;;;;;5076631;28;20493;-72
2022/01/08 14:55:38;;;;;;;0.40;0.40;;;4.50;99.90;;;;;;5077420;28;20465;-73
2022/01/08 14:58:26;;;;;;;0.40;0.40;;;4.30;99.90;;;;;;5078371;28;20493;-72
2022/01/08 15:01:13;;;;;;;0.40;0.40;;;4.40;99.90;;;;;;5079499;28;20854;-72
2022/01/08 15:04:00;;;;;;;0.40;0.40;;;4.40;99.90;;;;;;5068047;28;20432;-72
2022/01/08 15:06:48;;;;;;;0.40;0.40;;;4.40;99.90;;;;;;5061534;28;20440;-72
2022/01/08 15:09:35;;;;;;;0.40;0.40;;;4.40;99.90;;;;;;5069626;28;20570;-72